Alpine Village, Colorado
Current Conditions -  °F | °C
As of 1:14 PM on Friday 21 Nov 2014 (Local Time) from K7BM Reporting Station
Clear Clear  
Wind Chill: 34°   Ceiling: Unl
Heat Index: 41°   Visibility: 10mi
Dew Point:   Wind: 13mph
Humidity: 24%   Direction: 240°WSW
Pressure: 30.04"   Gusts: NA
Location:  38.7194°N, 106.276°W
Report Text: K7BM 212014Z AUTO 24011KT 10SM CLR 05/M14 A3004 RMK AO2
Loading
Personal Weather Stations






























Interactive Weather Map New forecast layout! Learn more

10-Day Weather Forecast

Advertisements
Track Severe Weather on mobile